»·PEaware :: N800DW KSAN-KPRC

N800DW :: KSAN-KPRC

FLIGHT INFORMATION

Flight Status: Arrived
Operator: Privately registered:
United States
More flights under this callsign
Pilot: Scott L. (17677)
Aircraft: Unknown
(SF50)
More flights by this aircraft type
Origin: KSAN San Diego Intl-Lindbergh
United States
Destination: KPRC Love
United States
More flights between these airports :: More routes between these airports
Route: BRDR7 JLI V514 TNP V208 EED V12 DRK
File this flight plan on PilotEdge
Remarks:
Altitude:
(Current/Filed)
27,000ft
Speed:
(Current/Filed)
300kts
Departed: 03-Aug-18 09:43 AM
Arrived: 03-Aug-18 10:54 AM
Distance/Time
Traveled:
264nm/1:10
Distance/Time
To Go:
Arrived

Flight Plot

Page will automatically refresh every two minutes.

Flight plan parsing failed; only flown route is shown


Map Options




Map Legend


Flown Route
Filed Route
Departure Airport
Arrival Airport
Navaid (VOR, NDB)
Fix

Horizontal Profiles

Position Reports

Time Latitude Longitude Heading Altitude Ground
Speed
03-Aug-18 08:49 32.732017 -117.176219 193 19ft 0kts
03-Aug-18 08:50 32.732017 -117.176219 193 19ft 0kts
03-Aug-18 08:51 32.732017 -117.176219 193 19ft 0kts
03-Aug-18 08:52 32.732017 -117.176219 193 19ft 0kts
03-Aug-18 08:53 32.732017 -117.176219 193 19ft 0kts
03-Aug-18 08:54 32.732017 -117.176219 193 19ft 0kts
03-Aug-18 08:55 32.732017 -117.176219 193 19ft 0kts
03-Aug-18 08:56 32.732017 -117.176219 193 19ft 0kts
03-Aug-18 08:57 32.732017 -117.176219 193 19ft 0kts
03-Aug-18 08:58 32.732017 -117.176219 193 19ft 0kts
03-Aug-18 08:59 32.732017 -117.176219 193 19ft 0kts
03-Aug-18 09:00 32.732017 -117.176219 193 19ft 0kts
03-Aug-18 09:01 32.732017 -117.176219 193 19ft 0kts
03-Aug-18 09:02 32.732017 -117.176219 193 19ft 0kts
03-Aug-18 09:03 32.732017 -117.176219 193 19ft 0kts
03-Aug-18 09:04 32.732017 -117.176219 193 19ft 0kts
03-Aug-18 09:05 32.732017 -117.176219 193 19ft 0kts
03-Aug-18 09:06 32.732017 -117.176219 193 19ft 0kts
03-Aug-18 09:07 32.732017 -117.176219 193 19ft 0kts
03-Aug-18 09:08 32.732017 -117.176219 193 19ft 0kts
03-Aug-18 09:09 32.732017 -117.176219 193 19ft 0kts
03-Aug-18 09:10 32.732017 -117.176219 193 19ft 0kts
03-Aug-18 09:11 32.732017 -117.176219 193 19ft 0kts
03-Aug-18 09:12 32.732017 -117.176219 193 19ft 0kts
03-Aug-18 09:13 32.732017 -117.176219 193 19ft 0kts
03-Aug-18 09:14 32.732017 -117.176219 193 19ft 0kts
03-Aug-18 09:15 32.732017 -117.176219 193 19ft 0kts
03-Aug-18 09:16 32.732017 -117.176219 193 19ft 0kts
03-Aug-18 09:17 32.732017 -117.176219 193 19ft 0kts
03-Aug-18 09:18 32.732017 -117.176219 193 19ft 0kts
03-Aug-18 09:19 32.732017 -117.176219 193 19ft 0kts
03-Aug-18 09:20 32.732017 -117.176219 193 19ft 0kts
03-Aug-18 09:21 32.732017 -117.176219 193 19ft 0kts
03-Aug-18 09:22 32.732017 -117.176219 193 19ft 0kts
03-Aug-18 09:23 32.732017 -117.176219 193 19ft 0kts
03-Aug-18 09:24 32.732017 -117.176219 193 19ft 0kts
03-Aug-18 09:25 32.732017 -117.176219 193 19ft 0kts
03-Aug-18 09:26 32.732017 -117.176219 193 19ft 0kts
03-Aug-18 09:27 32.732017 -117.176219 193 19ft 0kts
03-Aug-18 09:28 32.732017 -117.176219 193 19ft 0kts
03-Aug-18 09:29 32.732017 -117.176219 193 19ft 0kts
03-Aug-18 09:30 32.732017 -117.176219 193 19ft 0kts
03-Aug-18 09:31 32.732017 -117.176219 193 19ft 0kts
03-Aug-18 09:32 32.732017 -117.176219 193 19ft 0kts
03-Aug-18 09:33 32.732017 -117.176219 193 19ft 0kts
03-Aug-18 09:34 32.732017 -117.176219 193 19ft 0kts
03-Aug-18 09:35 32.732017 -117.176219 193 19ft 0kts
03-Aug-18 09:36 32.732017 -117.176219 193 19ft 0kts
03-Aug-18 09:37 32.732017 -117.176219 193 19ft 0kts
03-Aug-18 09:38 32.732017 -117.176219 193 19ft 0kts
03-Aug-18 09:39 32.732017 -117.176219 193 19ft 0kts
03-Aug-18 09:40 32.732017 -117.176219 193 19ft 0kts
03-Aug-18 09:41 32.731760 -117.176245 170 19ft 3kts
03-Aug-18 09:42 32.730925 -117.175459 156 19ft 0kts
03-Aug-18 09:43 32.730573 -117.175241 166 19ft 7kts
03-Aug-18 09:44 32.735405 -117.195756 287 602ft 131kts
03-Aug-18 09:45 32.747622 -117.237572 290 3096ft 144kts
03-Aug-18 09:46 32.763903 -117.279828 292 5617ft 145kts
03-Aug-18 09:47 32.774312 -117.311736 247 7530ft 128kts
03-Aug-18 09:48 32.748378 -117.300245 111 9546ft 105kts
03-Aug-18 09:49 32.767515 -117.276733 68 10738ft 150kts
03-Aug-18 09:50 32.783022 -117.236663 51 12816ft 125kts
03-Aug-18 09:51 32.802443 -117.203820 47 14103ft 140kts
03-Aug-18 09:52 32.829736 -117.160719 54 15231ft 189kts
03-Aug-18 09:53 32.859845 -117.106587 56 16255ft 230kts
03-Aug-18 09:54 32.895834 -117.040344 56 17648ft 245kts
03-Aug-18 09:55 32.933066 -116.971542 55 19048ft 251kts
03-Aug-18 09:56 32.970846 -116.901596 55 20438ft 253kts
03-Aug-18 09:57 33.008585 -116.831618 55 21821ft 251kts
03-Aug-18 09:58 33.045981 -116.762118 55 23205ft 248kts
03-Aug-18 09:59 33.082362 -116.694376 55 24576ft 242kts
03-Aug-18 10:00 33.117605 -116.628636 56 25937ft 233kts
03-Aug-18 10:01 33.149729 -116.578785 33 27006ft 224kts
03-Aug-18 10:02 33.205475 -116.529627 32 27013ft 273kts
03-Aug-18 10:03 33.270464 -116.473063 33 26952ft 306kts
03-Aug-18 10:04 33.341344 -116.411309 33 26897ft 324kts
03-Aug-18 10:05 33.413603 -116.348228 33 26885ft 333kts
03-Aug-18 10:06 33.487212 -116.283829 34 26880ft 336kts
03-Aug-18 10:07 33.562564 -116.217772 33 26880ft 338kts
03-Aug-18 10:08 33.638505 -116.152002 32 26882ft 339kts
03-Aug-18 10:09 33.716400 -116.089422 31 26880ft 339kts
03-Aug-18 10:10 33.794837 -116.026411 31 26881ft 340kts
03-Aug-18 10:11 33.872979 -115.963467 31 26881ft 340kts
03-Aug-18 10:12 33.937325 -115.911536 31 26892ft 340kts
03-Aug-18 10:13 34.028105 -115.838112 31 27009ft 337kts
03-Aug-18 10:14 34.104714 -115.776015 32 27089ft 337kts
03-Aug-18 10:15 34.156699 -115.683263 56 27093ft 343kts
03-Aug-18 10:16 34.198317 -115.601966 56 27094ft 344kts
03-Aug-18 10:17 34.256774 -115.487463 56 27093ft 345kts
03-Aug-18 10:18 34.306488 -115.389803 56 27075ft 346kts
03-Aug-18 10:19 34.348225 -115.307605 57 27027ft 347kts
03-Aug-18 10:20 34.398599 -115.208132 57 26973ft 347kts
03-Aug-18 10:21 34.448677 -115.108729 57 27011ft 344kts
03-Aug-18 10:22 34.506217 -114.994660 56 27009ft 344kts
03-Aug-18 10:23 34.547398 -114.912676 56 27009ft 343kts
03-Aug-18 10:24 34.596780 -114.814083 56 27010ft 343kts
03-Aug-18 10:25 34.646156 -114.715230 56 26972ft 344kts
03-Aug-18 10:26 34.695409 -114.616331 56 26963ft 343kts
03-Aug-18 10:27 34.744599 -114.517287 56 26965ft 343kts
03-Aug-18 10:28 34.764044 -114.406435 90 26948ft 347kts
03-Aug-18 10:29 34.761885 -114.305084 91 26949ft 347kts
03-Aug-18 10:30 34.758926 -114.188647 91 26950ft 346kts
03-Aug-18 10:31 34.755834 -114.071922 91 26990ft 346kts
03-Aug-18 10:32 34.752548 -113.951799 91 26216ft 364kts
03-Aug-18 10:33 34.749009 -113.827070 92 25441ft 372kts
03-Aug-18 10:34 34.745336 -113.702305 92 24865ft 371kts
03-Aug-18 10:35 34.741469 -113.575275 92 23807ft 379kts
03-Aug-18 10:36 34.739072 -113.446891 90 22733ft 382kts
03-Aug-18 10:37 34.735563 -113.317878 93 21424ft 386kts
03-Aug-18 10:38 34.732643 -113.237018 93 20585ft 386kts
03-Aug-18 10:39 34.727797 -113.107001 94 19256ft 383kts
03-Aug-18 10:40 34.722918 -112.979298 94 17946ft 358kts
03-Aug-18 10:41 34.718657 -112.870558 94 16547ft 294kts
03-Aug-18 10:42 34.725255 -112.780995 89 16243ft 238kts
03-Aug-18 10:43 34.726410 -112.706553 90 16239ft 204kts
03-Aug-18 10:44 34.742073 -112.640936 68 15431ft 235kts
03-Aug-18 10:45 34.768284 -112.559726 68 13227ft 273kts
03-Aug-18 10:46 34.796517 -112.472361 68 10958ft 280kts
03-Aug-18 10:47 34.822912 -112.384614 70 9041ft 263kts
03-Aug-18 10:48 34.840443 -112.308986 107 8961ft 212kts
03-Aug-18 10:49 34.795802 -112.277165 163 9014ft 178kts
03-Aug-18 10:50 34.767277 -112.301643 219 8570ft 131kts
03-Aug-18 10:51 34.734946 -112.332749 226 7692ft 156kts
03-Aug-18 10:52 34.703775 -112.368140 223 6399ft 145kts
03-Aug-18 10:53 34.677997 -112.394708 224 5556ft 94kts
03-Aug-18 10:54 34.660585 -112.413062 223 5053ft 92kts
03-Aug-18 10:55 34.651031 -112.422462 132 5013ft 14kts
03-Aug-18 10:56 34.650836 -112.422170 128 5013ft 0kts
03-Aug-18 10:57 34.650731 -112.421666 86 5013ft 9kts
03-Aug-18 10:58 34.650785 -112.420655 129 5013ft 0kts
03-Aug-18 10:59 34.650785 -112.420655 129 5013ft 0kts
03-Aug-18 11:00 34.650785 -112.420655 129 5013ft 0kts
03-Aug-18 11:01 34.650785 -112.420655 129 5013ft 0kts
03-Aug-18 11:02 34.650785 -112.420655 129 5013ft 0kts
03-Aug-18 11:03 34.650785 -112.420655 129 5013ft 0kts
03-Aug-18 11:04 34.650785 -112.420655 129 5013ft 0kts
03-Aug-18 11:05 34.650785 -112.420655 129 5013ft 0kts
03-Aug-18 11:06 34.650785 -112.420655 129 5013ft 0kts
03-Aug-18 11:07 34.650785 -112.420655 129 5013ft 0kts

Navigation Log

Ident Type
Flight plan parsing failed, navigation log unavailable